sensor_id;sensor_type;location;lat;lon;timestamp;P1;durP1;ratioP1;P2;durP2;ratioP2
6973;SDS011;3527;52.376;8.990;2022-09-03T00:02:06;2.43;;;0.90;;
6973;SDS011;3527;52.376;8.990;2022-09-03T00:08:16;1.63;;;1.03;;
6973;SDS011;3527;52.376;8.990;2022-09-03T00:11:17;3.13;;;1.30;;
6973;SDS011;3527;52.376;8.990;2022-09-03T00:14:06;3.43;;;1.10;;
6973;SDS011;3527;52.376;8.990;2022-09-03T00:17:00;2.40;;;1.10;;
6973;SDS011;3527;52.376;8.990;2022-09-03T00:19:57;2.30;;;1.20;;
6973;SDS011;3527;52.376;8.990;2022-09-03T00:23:06;4.93;;;1.10;;
6973;SDS011;3527;52.376;8.990;2022-09-03T00:25:59;2.83;;;0.93;;
6973;SDS011;3527;52.376;8.990;2022-09-03T00:32:03;2.00;;;1.27;;
6973;SDS011;3527;52.376;8.990;2022-09-03T00:34:57;4.10;;;1.13;;
6973;SDS011;3527;52.376;8.990;2022-09-03T00:37:50;2.47;;;1.30;;
6973;SDS011;3527;52.376;8.990;2022-09-03T00:41:23;4.40;;;1.10;;
6973;SDS011;3527;52.376;8.990;2022-09-03T00:44:17;3.70;;;1.30;;
6973;SDS011;3527;52.376;8.990;2022-09-03T01:06:18;2.23;;;1.20;;
6973;SDS011;3527;52.376;8.990;2022-09-03T01:12:58;2.27;;;1.20;;
6973;SDS011;3527;52.376;8.990;2022-09-03T01:34:42;2.27;;;1.10;;
6973;SDS011;3527;52.376;8.990;2022-09-03T01:43:45;3.57;;;1.20;;
6973;SDS011;3527;52.376;8.990;2022-09-03T01:46:40;2.00;;;1.30;;
6973;SDS011;3527;52.376;8.990;2022-09-03T01:49:39;2.40;;;1.20;;
6973;SDS011;3527;52.376;8.990;2022-09-03T01:56:06;2.90;;;1.30;;
6973;SDS011;3527;52.376;8.990;2022-09-03T02:00:03;3.30;;;1.40;;
6973;SDS011;3527;52.376;8.990;2022-09-03T02:02:46;5.10;;;1.50;;
6973;SDS011;3527;52.376;8.990;2022-09-03T02:05:37;1.43;;;1.23;;
6973;SDS011;3527;52.376;8.990;2022-09-03T02:08:24;3.57;;;1.30;;
6973;SDS011;3527;52.376;8.990;2022-09-03T02:11:11;2.77;;;1.30;;
6973;SDS011;3527;52.376;8.990;2022-09-03T02:13:59;2.50;;;1.30;;
6973;SDS011;3527;52.376;8.990;2022-09-03T02:16:46;3.63;;;1.40;;
6973;SDS011;3527;52.376;8.990;2022-09-03T02:19:33;4.60;;;1.43;;
6973;SDS011;3527;52.376;8.990;2022-09-03T02:22:23;1.80;;;1.30;;
6973;SDS011;3527;52.376;8.990;2022-09-03T02:25:10;3.30;;;1.43;;
6973;SDS011;3527;52.376;8.990;2022-09-03T02:27:57;5.47;;;1.60;;
6973;SDS011;3527;52.376;8.990;2022-09-03T02:30:45;2.43;;;1.50;;
6973;SDS011;3527;52.376;8.990;2022-09-03T02:33:35;2.37;;;1.60;;
6973;SDS011;3527;52.376;8.990;2022-09-03T02:36:26;1.90;;;1.50;;
6973;SDS011;3527;52.376;8.990;2022-09-03T02:39:17;4.23;;;2.03;;
6973;SDS011;3527;52.376;8.990;2022-09-03T02:42:04;3.87;;;1.50;;
6973;SDS011;3527;52.376;8.990;2022-09-03T02:44:56;1.93;;;1.70;;
6973;SDS011;3527;52.376;8.990;2022-09-03T02:47:54;2.97;;;1.67;;
6973;SDS011;3527;52.376;8.990;2022-09-03T02:50:44;3.17;;;1.70;;
6973;SDS011;3527;52.376;8.990;2022-09-03T02:53:31;3.83;;;1.90;;
6973;SDS011;3527;52.376;8.990;2022-09-03T02:56:18;3.80;;;1.57;;
6973;SDS011;3527;52.376;8.990;2022-09-03T02:59:06;3.83;;;1.80;;
6973;SDS011;3527;52.376;8.990;2022-09-03T03:01:54;3.03;;;1.67;;
6973;SDS011;3527;52.376;8.990;2022-09-03T03:04:46;3.67;;;1.60;;
6973;SDS011;3527;52.376;8.990;2022-09-03T03:07:34;3.70;;;1.70;;
6973;SDS011;3527;52.376;8.990;2022-09-03T03:10:24;2.83;;;1.70;;
6973;SDS011;3527;52.376;8.990;2022-09-03T03:13:11;2.90;;;1.80;;
6973;SDS011;3527;52.376;8.990;2022-09-03T03:16:00;3.90;;;1.60;;
6973;SDS011;3527;52.376;8.990;2022-09-03T03:18:49;4.27;;;1.50;;
6973;SDS011;3527;52.376;8.990;2022-09-03T03:21:38;3.63;;;1.67;;
6973;SDS011;3527;52.376;8.990;2022-09-03T03:24:25;3.70;;;2.00;;
6973;SDS011;3527;52.376;8.990;2022-09-03T03:27:12;3.57;;;1.67;;
6973;SDS011;3527;52.376;8.990;2022-09-03T03:30:00;3.13;;;1.67;;
6973;SDS011;3527;52.376;8.990;2022-09-03T03:32:47;2.13;;;1.60;;
6973;SDS011;3527;52.376;8.990;2022-09-03T03:35:34;2.00;;;1.43;;
6973;SDS011;3527;52.376;8.990;2022-09-03T03:38:22;4.00;;;1.70;;
6973;SDS011;3527;52.376;8.990;2022-09-03T03:41:10;3.43;;;1.83;;
6973;SDS011;3527;52.376;8.990;2022-09-03T03:43:59;2.97;;;1.57;;
6973;SDS011;3527;52.376;8.990;2022-09-03T03:46:50;3.57;;;1.70;;
6973;SDS011;3527;52.376;8.990;2022-09-03T03:49:37;1.80;;;1.63;;
6973;SDS011;3527;52.376;8.990;2022-09-03T03:52:25;3.03;;;1.60;;
6973;SDS011;3527;52.376;8.990;2022-09-03T03:55:13;2.30;;;1.50;;
6973;SDS011;3527;52.376;8.990;2022-09-03T03:58:01;3.43;;;1.80;;
6973;SDS011;3527;52.376;8.990;2022-09-03T04:00:51;5.00;;;1.63;;
6973;SDS011;3527;52.376;8.990;2022-09-03T04:03:38;4.57;;;1.77;;
6973;SDS011;3527;52.376;8.990;2022-09-03T04:06:26;3.60;;;1.70;;
6973;SDS011;3527;52.376;8.990;2022-09-03T04:09:14;1.97;;;1.60;;
6973;SDS011;3527;52.376;8.990;2022-09-03T04:12:01;3.90;;;1.93;;
6973;SDS011;3527;52.376;8.990;2022-09-03T04:14:49;3.03;;;1.60;;
6973;SDS011;3527;52.376;8.990;2022-09-03T04:17:36;3.00;;;1.50;;
6973;SDS011;3527;52.376;8.990;2022-09-03T04:20:23;2.83;;;1.60;;
6973;SDS011;3527;52.376;8.990;2022-09-03T04:23:10;2.97;;;1.70;;
6973;SDS011;3527;52.376;8.990;2022-09-03T04:25:58;2.57;;;1.67;;
6973;SDS011;3527;52.376;8.990;2022-09-03T04:28:45;2.50;;;1.63;;
6973;SDS011;3527;52.376;8.990;2022-09-03T04:31:33;2.33;;;1.40;;
6973;SDS011;3527;52.376;8.990;2022-09-03T04:34:22;2.27;;;1.60;;
6973;SDS011;3527;52.376;8.990;2022-09-03T04:37:10;3.17;;;1.90;;
6973;SDS011;3527;52.376;8.990;2022-09-03T04:39:57;2.20;;;1.70;;
6973;SDS011;3527;52.376;8.990;2022-09-03T04:42:44;1.93;;;1.67;;
6973;SDS011;3527;52.376;8.990;2022-09-03T04:45:31;2.80;;;1.77;;
6973;SDS011;3527;52.376;8.990;2022-09-03T04:48:18;2.50;;;1.63;;
6973;SDS011;3527;52.376;8.990;2022-09-03T04:51:10;1.80;;;1.33;;
6973;SDS011;3527;52.376;8.990;2022-09-03T04:54:01;3.50;;;1.60;;
6973;SDS011;3527;52.376;8.990;2022-09-03T04:56:48;2.60;;;1.70;;
6973;SDS011;3527;52.376;8.990;2022-09-03T04:59:35;2.50;;;1.73;;
6973;SDS011;3527;52.376;8.990;2022-09-03T05:02:22;2.67;;;1.70;;
6973;SDS011;3527;52.376;8.990;2022-09-03T05:05:09;2.40;;;1.63;;
6973;SDS011;3527;52.376;8.990;2022-09-03T05:07:57;2.17;;;1.50;;
6973;SDS011;3527;52.376;8.990;2022-09-03T05:10:44;2.83;;;1.50;;
6973;SDS011;3527;52.376;8.990;2022-09-03T05:13:32;1.80;;;1.40;;
6973;SDS011;3527;52.376;8.990;2022-09-03T05:16:20;3.30;;;1.60;;
6973;SDS011;3527;52.376;8.990;2022-09-03T05:19:09;5.73;;;1.83;;
6973;SDS011;3527;52.376;8.990;2022-09-03T05:21:56;3.33;;;1.50;;
6973;SDS011;3527;52.376;8.990;2022-09-03T05:24:43;3.40;;;1.70;;
6973;SDS011;3527;52.376;8.990;2022-09-03T05:27:30;2.80;;;1.53;;
6973;SDS011;3527;52.376;8.990;2022-09-03T05:30:17;2.50;;;1.83;;
6973;SDS011;3527;52.376;8.990;2022-09-03T05:33:04;2.77;;;1.63;;
6973;SDS011;3527;52.376;8.990;2022-09-03T05:35:54;2.47;;;1.60;;
6973;SDS011;3527;52.376;8.990;2022-09-03T05:38:47;4.53;;;1.70;;
6973;SDS011;3527;52.376;8.990;2022-09-03T05:41:34;2.67;;;1.50;;
6973;SDS011;3527;52.376;8.990;2022-09-03T05:44:21;3.97;;;1.70;;
6973;SDS011;3527;52.376;8.990;2022-09-03T05:47:09;3.20;;;1.60;;
6973;SDS011;3527;52.376;8.990;2022-09-03T05:49:57;3.00;;;1.70;;
6973;SDS011;3527;52.376;8.990;2022-09-03T05:52:44;3.67;;;1.60;;
6973;SDS011;3527;52.376;8.990;2022-09-03T05:55:31;2.53;;;1.50;;
6973;SDS011;3527;52.376;8.990;2022-09-03T05:58:18;3.50;;;1.60;;
6973;SDS011;3527;52.376;8.990;2022-09-03T06:01:15;2.10;;;1.60;;
6973;SDS011;3527;52.376;8.990;2022-09-03T06:04:09;2.50;;;1.67;;
6973;SDS011;3527;52.376;8.990;2022-09-03T06:06:58;2.60;;;1.50;;
6973;SDS011;3527;52.376;8.990;2022-09-03T06:09:45;2.33;;;1.60;;
6973;SDS011;3527;52.376;8.990;2022-09-03T06:12:32;3.37;;;1.67;;
6973;SDS011;3527;52.376;8.990;2022-09-03T06:15:19;3.20;;;1.63;;
6973;SDS011;3527;52.376;8.990;2022-09-03T06:18:06;4.20;;;1.80;;
6973;SDS011;3527;52.376;8.990;2022-09-03T06:20:54;3.27;;;1.80;;
6973;SDS011;3527;52.376;8.990;2022-09-03T06:23:51;4.53;;;1.77;;
6973;SDS011;3527;52.376;8.990;2022-09-03T06:26:45;2.77;;;1.43;;
6973;SDS011;3527;52.376;8.990;2022-09-03T06:29:32;4.57;;;1.73;;
6973;SDS011;3527;52.376;8.990;2022-09-03T06:32:21;3.67;;;1.60;;
6973;SDS011;3527;52.376;8.990;2022-09-03T06:35:08;2.23;;;1.53;;
6973;SDS011;3527;52.376;8.990;2022-09-03T06:37:55;4.10;;;1.77;;
6973;SDS011;3527;52.376;8.990;2022-09-03T06:40:42;3.27;;;1.70;;
6973;SDS011;3527;52.376;8.990;2022-09-03T06:43:33;2.37;;;1.60;;
6973;SDS011;3527;52.376;8.990;2022-09-03T06:46:22;2.60;;;1.50;;
6973;SDS011;3527;52.376;8.990;2022-09-03T06:49:09;3.80;;;1.70;;
6973;SDS011;3527;52.376;8.990;2022-09-03T06:51:57;4.63;;;1.67;;
6973;SDS011;3527;52.376;8.990;2022-09-03T06:54:44;4.23;;;1.70;;
6973;SDS011;3527;52.376;8.990;2022-09-03T06:57:31;5.23;;;1.77;;
6973;SDS011;3527;52.376;8.990;2022-09-03T07:00:18;2.87;;;1.63;;
6973;SDS011;3527;52.376;8.990;2022-09-03T07:03:06;2.90;;;1.37;;
6973;SDS011;3527;52.376;8.990;2022-09-03T07:05:53;2.20;;;1.50;;
6973;SDS011;3527;52.376;8.990;2022-09-03T07:08:46;2.70;;;1.53;;
6973;SDS011;3527;52.376;8.990;2022-09-03T07:11:33;1.83;;;1.40;;
6973;SDS011;3527;52.376;8.990;2022-09-03T07:14:21;2.37;;;1.40;;
6973;SDS011;3527;52.376;8.990;2022-09-03T07:17:09;2.20;;;1.53;;
6973;SDS011;3527;52.376;8.990;2022-09-03T07:19:56;3.87;;;1.70;;
6973;SDS011;3527;52.376;8.990;2022-09-03T07:22:43;2.10;;;1.50;;
6973;SDS011;3527;52.376;8.990;2022-09-03T07:25:31;2.90;;;1.63;;
6973;SDS011;3527;52.376;8.990;2022-09-03T07:28:18;2.70;;;1.60;;
6973;SDS011;3527;52.376;8.990;2022-09-03T07:33:58;2.83;;;1.40;;
6973;SDS011;3527;52.376;8.990;2022-09-03T07:36:46;5.63;;;1.73;;
6973;SDS011;3527;52.376;8.990;2022-09-03T07:39:36;4.23;;;1.47;;
6973;SDS011;3527;52.376;8.990;2022-09-03T07:42:24;3.33;;;1.70;;
6973;SDS011;3527;52.376;8.990;2022-09-03T07:45:13;3.77;;;1.53;;
6973;SDS011;3527;52.376;8.990;2022-09-03T07:48:00;3.23;;;1.53;;
6973;SDS011;3527;52.376;8.990;2022-09-03T07:50:47;3.07;;;1.43;;
6973;SDS011;3527;52.376;8.990;2022-09-03T07:53:34;3.17;;;1.40;;
6973;SDS011;3527;52.376;8.990;2022-09-03T07:56:22;5.37;;;1.67;;
6973;SDS011;3527;52.376;8.990;2022-09-03T07:59:10;3.57;;;1.40;;
6973;SDS011;3527;52.376;8.990;2022-09-03T08:01:57;2.27;;;1.60;;
6973;SDS011;3527;52.376;8.990;2022-09-03T08:04:44;3.07;;;1.50;;
6973;SDS011;3527;52.376;8.990;2022-09-03T08:07:31;2.93;;;1.17;;
6973;SDS011;3527;52.376;8.990;2022-09-03T08:10:19;2.70;;;1.40;;
6973;SDS011;3527;52.376;8.990;2022-09-03T08:13:07;4.27;;;1.10;;
6973;SDS011;3527;52.376;8.990;2022-09-03T08:15:54;3.37;;;1.50;;
6973;SDS011;3527;52.376;8.990;2022-09-03T08:18:42;1.73;;;1.30;;
6973;SDS011;3527;52.376;8.990;2022-09-03T08:21:29;2.23;;;1.47;;
6973;SDS011;3527;52.376;8.990;2022-09-03T08:24:17;2.47;;;1.30;;
6973;SDS011;3527;52.376;8.990;2022-09-03T08:27:07;3.50;;;1.40;;
6973;SDS011;3527;52.376;8.990;2022-09-03T08:29:54;3.43;;;1.70;;
6973;SDS011;3527;52.376;8.990;2022-09-03T08:32:42;3.83;;;1.40;;
6973;SDS011;3527;52.376;8.990;2022-09-03T08:35:29;2.97;;;1.40;;
6973;SDS011;3527;52.376;8.990;2022-09-03T08:38:19;3.80;;;1.20;;
6973;SDS011;3527;52.376;8.990;2022-09-03T08:44:11;3.30;;;1.53;;
6973;SDS011;3527;52.376;8.990;2022-09-03T08:50:03;4.27;;;1.40;;
6973;SDS011;3527;52.376;8.990;2022-09-03T08:56:08;1.97;;;1.30;;
6973;SDS011;3527;52.376;8.990;2022-09-03T08:58:59;2.20;;;1.30;;
6973;SDS011;3527;52.376;8.990;2022-09-03T09:01:52;3.00;;;1.30;;
6973;SDS011;3527;52.376;8.990;2022-09-03T09:10:33;3.33;;;1.40;;
6973;SDS011;3527;52.376;8.990;2022-09-03T09:20:04;2.37;;;1.20;;
6973;SDS011;3527;52.376;8.990;2022-09-03T09:22:56;4.63;;;1.67;;
6973;SDS011;3527;52.376;8.990;2022-09-03T09:25:49;4.00;;;1.50;;
6973;SDS011;3527;52.376;8.990;2022-09-03T09:28:37;6.30;;;1.40;;
6973;SDS011;3527;52.376;8.990;2022-09-03T09:31:25;3.17;;;1.40;;
6973;SDS011;3527;52.376;8.990;2022-09-03T09:34:14;3.90;;;1.60;;
6973;SDS011;3527;52.376;8.990;2022-09-03T09:37:01;2.93;;;1.43;;
6973;SDS011;3527;52.376;8.990;2022-09-03T09:39:58;2.37;;;1.53;;
6973;SDS011;3527;52.376;8.990;2022-09-03T09:42:46;3.50;;;1.77;;
6973;SDS011;3527;52.376;8.990;2022-09-03T09:45:33;5.03;;;1.70;;
6973;SDS011;3527;52.376;8.990;2022-09-03T09:48:22;4.50;;;1.30;;
6973;SDS011;3527;52.376;8.990;2022-09-03T09:51:12;4.10;;;1.57;;
6973;SDS011;3527;52.376;8.990;2022-09-03T09:54:17;3.57;;;1.60;;
6973;SDS011;3527;52.376;8.990;2022-09-03T09:57:14;2.80;;;1.40;;
6973;SDS011;3527;52.376;8.990;2022-09-03T10:00:07;2.50;;;1.17;;
6973;SDS011;3527;52.376;8.990;2022-09-03T10:02:59;4.00;;;1.60;;
6973;SDS011;3527;52.376;8.990;2022-09-03T10:09:17;3.60;;;1.80;;
6973;SDS011;3527;52.376;8.990;2022-09-03T10:12:13;3.83;;;1.67;;
6973;SDS011;3527;52.376;8.990;2022-09-03T10:22:28;3.00;;;1.37;;
6973;SDS011;3527;52.376;8.990;2022-09-03T10:25:17;2.57;;;1.53;;
6973;SDS011;3527;52.376;8.990;2022-09-03T10:28:12;4.72;;;1.33;;
6973;SDS011;3527;52.376;8.990;2022-09-03T10:34:41;2.00;;;1.50;;
6973;SDS011;3527;52.376;8.990;2022-09-03T10:47:47;5.00;;;1.50;;
6973;SDS011;3527;52.376;8.990;2022-09-03T10:51:04;2.70;;;1.27;;
6973;SDS011;3527;52.376;8.990;2022-09-03T11:00:38;4.63;;;1.40;;
6973;SDS011;3527;52.376;8.990;2022-09-03T11:09:47;1.60;;;1.30;;
6973;SDS011;3527;52.376;8.990;2022-09-03T11:16:12;2.75;;;1.30;;
6973;SDS011;3527;52.376;8.990;2022-09-03T11:19:12;2.15;;;1.30;;
6973;SDS011;3527;52.376;8.990;2022-09-03T11:22:06;3.97;;;1.48;;
6973;SDS011;3527;52.376;8.990;2022-09-03T11:24:57;4.07;;;1.42;;
6973;SDS011;3527;52.376;8.990;2022-09-03T11:27:53;2.00;;;1.48;;
6973;SDS011;3527;52.376;8.990;2022-09-03T11:31:15;4.75;;;1.40;;
6973;SDS011;3527;52.376;8.990;2022-09-03T11:37:28;2.10;;;1.38;;
6973;SDS011;3527;52.376;8.990;2022-09-03T11:40:16;4.55;;;1.42;;
6973;SDS011;3527;52.376;8.990;2022-09-03T11:49:10;3.15;;;1.30;;
6973;SDS011;3527;52.376;8.990;2022-09-03T11:52:02;1.95;;;1.20;;
6973;SDS011;3527;52.376;8.990;2022-09-03T11:54:56;1.80;;;1.20;;
6973;SDS011;3527;52.376;8.990;2022-09-03T11:57:44;2.45;;;1.20;;
6973;SDS011;3527;52.376;8.990;2022-09-03T12:00:32;1.98;;;1.23;;
6973;SDS011;3527;52.376;8.990;2022-09-03T12:03:25;6.93;;;1.70;;
6973;SDS011;3527;52.376;8.990;2022-09-03T12:18:33;3.08;;;1.40;;
6973;SDS011;3527;52.376;8.990;2022-09-03T12:21:22;2.75;;;1.10;;
6973;SDS011;3527;52.376;8.990;2022-09-03T12:24:11;2.30;;;1.50;;
6973;SDS011;3527;52.376;8.990;2022-09-03T12:27:05;3.25;;;1.17;;
6973;SDS011;3527;52.376;8.990;2022-09-03T12:29:56;3.13;;;1.40;;
6973;SDS011;3527;52.376;8.990;2022-09-03T12:32:46;3.58;;;1.20;;
6973;SDS011;3527;52.376;8.990;2022-09-03T12:35:33;2.05;;;1.30;;
6973;SDS011;3527;52.376;8.990;2022-09-03T12:38:41;2.47;;;1.35;;
6973;SDS011;3527;52.376;8.990;2022-09-03T12:44:42;2.40;;;1.33;;
6973;SDS011;3527;52.376;8.990;2022-09-03T12:47:36;2.35;;;1.33;;
6973;SDS011;3527;52.376;8.990;2022-09-03T12:50:28;1.70;;;1.10;;
6973;SDS011;3527;52.376;8.990;2022-09-03T12:53:18;2.53;;;1.13;;
6973;SDS011;3527;52.376;8.990;2022-09-03T12:56:10;3.05;;;1.42;;
6973;SDS011;3527;52.376;8.990;2022-09-03T12:59:06;2.78;;;1.40;;
6973;SDS011;3527;52.376;8.990;2022-09-03T13:01:59;2.75;;;1.20;;
6973;SDS011;3527;52.376;8.990;2022-09-03T13:04:58;3.30;;;1.50;;
6973;SDS011;3527;52.376;8.990;2022-09-03T13:07:48;2.45;;;1.40;;
6973;SDS011;3527;52.376;8.990;2022-09-03T13:10:41;2.00;;;1.45;;
6973;SDS011;3527;52.376;8.990;2022-09-03T13:13:30;2.63;;;1.23;;
6973;SDS011;3527;52.376;8.990;2022-09-03T13:19:49;2.60;;;1.30;;
6973;SDS011;3527;52.376;8.990;2022-09-03T13:23:09;2.53;;;1.20;;
6973;SDS011;3527;52.376;8.990;2022-09-03T13:32:14;2.28;;;1.45;;
6973;SDS011;3527;52.376;8.990;2022-09-03T13:35:50;6.07;;;1.52;;
6973;SDS011;3527;52.376;8.990;2022-09-03T13:38:45;2.13;;;1.30;;
6973;SDS011;3527;52.376;8.990;2022-09-03T13:41:38;5.03;;;1.50;;
6973;SDS011;3527;52.376;8.990;2022-09-03T13:44:38;2.85;;;1.30;;
6973;SDS011;3527;52.376;8.990;2022-09-03T14:00:30;2.00;;;1.20;;
6973;SDS011;3527;52.376;8.990;2022-09-03T14:12:38;2.58;;;1.20;;
6973;SDS011;3527;52.376;8.990;2022-09-03T14:16:23;2.65;;;1.27;;
6973;SDS011;3527;52.376;8.990;2022-09-03T14:19:31;3.15;;;1.10;;
6973;SDS011;3527;52.376;8.990;2022-09-03T14:22:45;1.70;;;1.25;;
6973;SDS011;3527;52.376;8.990;2022-09-03T14:25:37;3.20;;;1.35;;
6973;SDS011;3527;52.376;8.990;2022-09-03T14:28:40;2.90;;;1.40;;
6973;SDS011;3527;52.376;8.990;2022-09-03T14:31:40;2.63;;;1.17;;
6973;SDS011;3527;52.376;8.990;2022-09-03T14:34:54;3.03;;;1.60;;
6973;SDS011;3527;52.376;8.990;2022-09-03T14:50:52;2.72;;;1.65;;
6973;SDS011;3527;52.376;8.990;2022-09-03T15:00:06;4.03;;;1.15;;
6973;SDS011;3527;52.376;8.990;2022-09-03T15:03:17;2.55;;;1.30;;
6973;SDS011;3527;52.376;8.990;2022-09-03T15:12:37;2.33;;;1.35;;
6973;SDS011;3527;52.376;8.990;2022-09-03T15:15:32;2.00;;;1.40;;
6973;SDS011;3527;52.376;8.990;2022-09-03T15:30:40;4.80;;;1.15;;
6973;SDS011;3527;52.376;8.990;2022-09-03T15:33:39;2.63;;;1.33;;
6973;SDS011;3527;52.376;8.990;2022-09-03T15:36:34;2.35;;;1.63;;
6973;SDS011;3527;52.376;8.990;2022-09-03T15:42:25;3.28;;;1.10;;
6973;SDS011;3527;52.376;8.990;2022-09-03T15:45:17;2.42;;;1.17;;
6973;SDS011;3527;52.376;8.990;2022-09-03T15:51:17;4.28;;;1.70;;
6973;SDS011;3527;52.376;8.990;2022-09-03T15:57:04;2.88;;;1.40;;
6973;SDS011;3527;52.376;8.990;2022-09-03T16:00:00;4.00;;;1.40;;
6973;SDS011;3527;52.376;8.990;2022-09-03T16:03:14;4.53;;;1.40;;
6973;SDS011;3527;52.376;8.990;2022-09-03T16:16:05;3.13;;;1.53;;
6973;SDS011;3527;52.376;8.990;2022-09-03T16:21:58;2.60;;;1.30;;
6973;SDS011;3527;52.376;8.990;2022-09-03T16:24:50;1.60;;;1.17;;
6973;SDS011;3527;52.376;8.990;2022-09-03T16:27:56;1.75;;;1.33;;
6973;SDS011;3527;52.376;8.990;2022-09-03T16:40:35;3.58;;;1.30;;
6973;SDS011;3527;52.376;8.990;2022-09-03T16:46:54;1.83;;;1.30;;
6973;SDS011;3527;52.376;8.990;2022-09-03T16:50:40;1.97;;;1.23;;
6973;SDS011;3527;52.376;8.990;2022-09-03T16:53:20;2.47;;;1.50;;
6973;SDS011;3527;52.376;8.990;2022-09-03T16:59:46;2.97;;;1.23;;
6973;SDS011;3527;52.376;8.990;2022-09-03T17:03:38;2.57;;;1.33;;
6973;SDS011;3527;52.376;8.990;2022-09-03T17:10:19;2.50;;;1.50;;
6973;SDS011;3527;52.376;8.990;2022-09-03T17:17:02;2.53;;;1.60;;
6973;SDS011;3527;52.376;8.990;2022-09-03T17:20:04;2.60;;;1.40;;
6973;SDS011;3527;52.376;8.990;2022-09-03T17:32:08;2.30;;;1.20;;
6973;SDS011;3527;52.376;8.990;2022-09-03T17:41:51;2.63;;;1.40;;
6973;SDS011;3527;52.376;8.990;2022-09-03T17:44:59;1.60;;;1.30;;
6973;SDS011;3527;52.376;8.990;2022-09-03T17:48:00;4.47;;;1.40;;
6973;SDS011;3527;52.376;8.990;2022-09-03T17:50:56;3.60;;;1.57;;
6973;SDS011;3527;52.376;8.990;2022-09-03T17:53:56;2.57;;;1.60;;
6973;SDS011;3527;52.376;8.990;2022-09-03T18:00:19;4.13;;;1.43;;
6973;SDS011;3527;52.376;8.990;2022-09-03T18:06:47;3.33;;;1.53;;
6973;SDS011;3527;52.376;8.990;2022-09-03T18:12:50;2.63;;;1.60;;
6973;SDS011;3527;52.376;8.990;2022-09-03T18:19:01;2.77;;;1.57;;
6973;SDS011;3527;52.376;8.990;2022-09-03T18:21:52;4.13;;;1.80;;
6973;SDS011;3527;52.376;8.990;2022-09-03T18:24:59;2.03;;;1.20;;
6973;SDS011;3527;52.376;8.990;2022-09-03T18:29:00;2.30;;;1.53;;
6973;SDS011;3527;52.376;8.990;2022-09-03T18:32:05;3.70;;;1.60;;
6973;SDS011;3527;52.376;8.990;2022-09-03T18:35:15;3.70;;;1.40;;
6973;SDS011;3527;52.376;8.990;2022-09-03T18:38:48;3.50;;;1.73;;
6973;SDS011;3527;52.376;8.990;2022-09-03T18:52:33;4.33;;;1.90;;
6973;SDS011;3527;52.376;8.990;2022-09-03T18:59:59;5.00;;;2.00;;
6973;SDS011;3527;52.376;8.990;2022-09-03T19:03:22;2.20;;;1.50;;
6973;SDS011;3527;52.376;8.990;2022-09-03T19:07:00;7.83;;;1.90;;
6973;SDS011;3527;52.376;8.990;2022-09-03T19:10:39;4.07;;;1.80;;
6973;SDS011;3527;52.376;8.990;2022-09-03T19:13:50;3.33;;;1.73;;
6973;SDS011;3527;52.376;8.990;2022-09-03T19:17:00;3.70;;;1.60;;
6973;SDS011;3527;52.376;8.990;2022-09-03T19:20:37;2.43;;;1.57;;
6973;SDS011;3527;52.376;8.990;2022-09-03T19:24:06;2.37;;;1.40;;
6973;SDS011;3527;52.376;8.990;2022-09-03T19:27:30;8.03;;;1.70;;
6973;SDS011;3527;52.376;8.990;2022-09-03T19:34:39;3.77;;;1.70;;
6973;SDS011;3527;52.376;8.990;2022-09-03T19:41:26;3.10;;;1.80;;
6973;SDS011;3527;52.376;8.990;2022-09-03T19:52:23;3.43;;;1.77;;
6973;SDS011;3527;52.376;8.990;2022-09-03T19:55:43;2.97;;;1.73;;
6973;SDS011;3527;52.376;8.990;2022-09-03T19:58:55;4.10;;;1.87;;
6973;SDS011;3527;52.376;8.990;2022-09-03T20:02:04;5.37;;;1.70;;
6973;SDS011;3527;52.376;8.990;2022-09-03T20:05:12;5.13;;;1.93;;
6973;SDS011;3527;52.376;8.990;2022-09-03T20:08:23;3.07;;;1.60;;
6973;SDS011;3527;52.376;8.990;2022-09-03T20:11:30;3.27;;;1.70;;
6973;SDS011;3527;52.376;8.990;2022-09-03T20:14:17;3.80;;;1.87;;
6973;SDS011;3527;52.376;8.990;2022-09-03T20:30:06;4.00;;;1.90;;
6973;SDS011;3527;52.376;8.990;2022-09-03T20:36:15;4.17;;;1.90;;
6973;SDS011;3527;52.376;8.990;2022-09-03T20:42:19;5.03;;;2.43;;
6973;SDS011;3527;52.376;8.990;2022-09-03T20:45:15;3.00;;;1.83;;
6973;SDS011;3527;52.376;8.990;2022-09-03T20:51:15;4.67;;;2.10;;
6973;SDS011;3527;52.376;8.990;2022-09-03T20:54:12;2.67;;;1.70;;
6973;SDS011;3527;52.376;8.990;2022-09-03T21:00:02;3.03;;;1.97;;
6973;SDS011;3527;52.376;8.990;2022-09-03T21:03:14;3.80;;;1.90;;
6973;SDS011;3527;52.376;8.990;2022-09-03T21:06:14;3.90;;;1.60;;
6973;SDS011;3527;52.376;8.990;2022-09-03T21:12:30;5.03;;;2.37;;
6973;SDS011;3527;52.376;8.990;2022-09-03T21:15:26;2.93;;;1.90;;
6973;SDS011;3527;52.376;8.990;2022-09-03T21:22:06;5.83;;;2.00;;
6973;SDS011;3527;52.376;8.990;2022-09-03T21:25:36;8.00;;;2.60;;
6973;SDS011;3527;52.376;8.990;2022-09-03T21:28:33;5.17;;;2.40;;
6973;SDS011;3527;52.376;8.990;2022-09-03T21:31:48;4.07;;;2.60;;
6973;SDS011;3527;52.376;8.990;2022-09-03T21:35:15;4.73;;;2.60;;
6973;SDS011;3527;52.376;8.990;2022-09-03T21:39:05;5.10;;;2.37;;
6973;SDS011;3527;52.376;8.990;2022-09-03T21:51:43;3.93;;;2.40;;
6973;SDS011;3527;52.376;8.990;2022-09-03T21:54:38;5.50;;;2.50;;
6973;SDS011;3527;52.376;8.990;2022-09-03T21:57:41;4.83;;;2.80;;
6973;SDS011;3527;52.376;8.990;2022-09-03T22:00:51;5.20;;;2.57;;
6973;SDS011;3527;52.376;8.990;2022-09-03T22:03:43;5.30;;;2.80;;
6973;SDS011;3527;52.376;8.990;2022-09-03T22:06:34;4.17;;;2.73;;
6973;SDS011;3527;52.376;8.990;2022-09-03T22:12:28;3.50;;;2.67;;
6973;SDS011;3527;52.376;8.990;2022-09-03T22:15:23;3.50;;;2.73;;
6973;SDS011;3527;52.376;8.990;2022-09-03T22:18:16;3.87;;;2.80;;
6973;SDS011;3527;52.376;8.990;2022-09-03T22:27:31;4.47;;;2.80;;
6973;SDS011;3527;52.376;8.990;2022-09-03T22:33:55;4.23;;;2.63;;
6973;SDS011;3527;52.376;8.990;2022-09-03T22:36:50;6.07;;;3.17;;
6973;SDS011;3527;52.376;8.990;2022-09-03T22:39:44;4.23;;;2.83;;
6973;SDS011;3527;52.376;8.990;2022-09-03T22:48:54;5.50;;;3.07;;
6973;SDS011;3527;52.376;8.990;2022-09-03T22:51:56;4.03;;;3.13;;
6973;SDS011;3527;52.376;8.990;2022-09-03T22:57:53;4.83;;;2.90;;
6973;SDS011;3527;52.376;8.990;2022-09-03T23:00:45;4.47;;;2.53;;
6973;SDS011;3527;52.376;8.990;2022-09-03T23:03:40;3.60;;;2.63;;
6973;SDS011;3527;52.376;8.990;2022-09-03T23:06:35;2.83;;;2.40;;
6973;SDS011;3527;52.376;8.990;2022-09-03T23:09:28;4.50;;;2.77;;
6973;SDS011;3527;52.376;8.990;2022-09-03T23:12:20;5.27;;;2.63;;
6973;SDS011;3527;52.376;8.990;2022-09-03T23:15:20;4.77;;;2.97;;
6973;SDS011;3527;52.376;8.990;2022-09-03T23:18:16;7.60;;;3.10;;
6973;SDS011;3527;52.376;8.990;2022-09-03T23:21:20;5.27;;;2.63;;
6973;SDS011;3527;52.376;8.990;2022-09-03T23:24:13;5.20;;;3.03;;
6973;SDS011;3527;52.376;8.990;2022-09-03T23:27:07;7.10;;;3.23;;
6973;SDS011;3527;52.376;8.990;2022-09-03T23:30:00;5.40;;;3.27;;
6973;SDS011;3527;52.376;8.990;2022-09-03T23:32:49;5.37;;;3.40;;
6973;SDS011;3527;52.376;8.990;2022-09-03T23:35:47;4.40;;;3.13;;
6973;SDS011;3527;52.376;8.990;2022-09-03T23:38:53;7.77;;;3.57;;
6973;SDS011;3527;52.376;8.990;2022-09-03T23:48:13;5.90;;;3.60;;
6973;SDS011;3527;52.376;8.990;2022-09-03T23:51:21;5.90;;;3.40;;
6973;SDS011;3527;52.376;8.990;2022-09-03T23:54:38;5.63;;;3.47;;
